Time;durP1;ratioP1;P1;durP2;ratioP2;P2;SDS_P1;SDS_P2;PMS_P1;PMS_P2;Temp;Humidity;BMP_temperature;BMP_pressure;BME280_temperature;BME280_humidity;BME280_pressure;Samples;Min_cycle;Max_cycle;Signal;HPM_P1;HPM_P2
2021/07/17 00:01:43;;;;;;;27.93;16.00;;;;;;;;;;469800;252;27654;-71
2021/07/17 00:03:45;;;;;;;21.27;15.83;;;;;;;;;;469794;252;27563;-70
2021/07/17 00:05:47;;;;;;;25.83;16.00;;;;;;;;;;470480;250;27546;-71
2021/07/17 00:07:49;;;;;;;23.13;15.87;;;;;;;;;;474940;250;28096;-71
2021/07/17 00:09:51;;;;;;;21.23;15.70;;;;;;;;;;474935;250;27536;-72
2021/07/17 00:11:53;;;;;;;25.23;15.50;;;;;;;;;;474922;250;28085;-70
2021/07/17 00:13:55;;;;;;;19.33;15.60;;;;;;;;;;474939;245;27536;-70
2021/07/17 00:15:58;;;;;;;23.07;15.57;;;;;;;;;;474914;250;27994;-71
2021/07/17 00:18:00;;;;;;;25.73;17.70;;;;;;;;;;474959;250;27525;-72
2021/07/17 00:20:02;;;;;;;20.20;13.30;;;;;;;;;;474949;250;27515;-71
2021/07/17 00:22:04;;;;;;;26.40;16.33;;;;;;;;;;474951;250;27531;-70
2021/07/17 00:24:06;;;;;;;22.23;16.13;;;;;;;;;;474949;250;27515;-70
2021/07/17 00:26:08;;;;;;;25.27;15.60;;;;;;;;;;474908;250;27634;-70
2021/07/17 00:28:10;;;;;;;27.90;17.30;;;;;;;;;;474954;250;27519;-70
2021/07/17 00:30:12;;;;;;;27.27;17.17;;;;;;;;;;474946;250;27635;-70
2021/07/17 00:32:14;;;;;;;27.23;18.53;;;;;;;;;;474931;250;27507;-70
2021/07/17 00:34:17;;;;;;;26.47;16.33;;;;;;;;;;474946;250;28779;-70
2021/07/17 00:36:19;;;;;;;26.93;17.50;;;;;;;;;;474930;250;27645;-70
2021/07/17 00:38:21;;;;;;;31.17;18.90;;;;;;;;;;474945;250;28146;-70
2021/07/17 00:40:23;;;;;;;24.67;17.33;;;;;;;;;;474948;250;27700;-71
2021/07/17 00:42:25;;;;;;;25.80;17.70;;;;;;;;;;474921;250;27671;-72
2021/07/17 00:44:27;;;;;;;27.40;18.80;;;;;;;;;;474952;250;27577;-70
2021/07/17 00:46:29;;;;;;;26.10;16.80;;;;;;;;;;474928;250;27559;-71
2021/07/17 00:48:31;;;;;;;26.77;18.03;;;;;;;;;;474945;250;27568;-70
2021/07/17 00:50:34;;;;;;;25.63;17.20;;;;;;;;;;474959;250;27553;-70
2021/07/17 00:52:36;;;;;;;25.17;17.50;;;;;;;;;;474918;250;27644;-69
2021/07/17 00:54:38;;;;;;;24.70;16.63;;;;;;;;;;474932;250;27646;-70
2021/07/17 00:56:40;;;;;;;21.90;16.60;;;;;;;;;;474942;250;28054;-70
2021/07/17 00:58:42;;;;;;;23.83;17.50;;;;;;;;;;474951;250;27555;-70
2021/07/17 01:00:44;;;;;;;21.83;15.47;;;;;;;;;;474944;250;27989;-70
2021/07/17 01:02:46;;;;;;;20.23;15.40;;;;;;;;;;474940;250;27536;-70
2021/07/17 01:04:48;;;;;;;21.80;16.73;;;;;;;;;;474946;250;28014;-70
2021/07/17 01:06:50;;;;;;;23.10;17.40;;;;;;;;;;474956;250;27594;-70
2021/07/17 01:08:53;;;;;;;22.33;17.03;;;;;;;;;;474937;250;27570;-72
2021/07/17 01:10:55;;;;;;;20.67;15.90;;;;;;;;;;474956;250;27531;-69
2021/07/17 01:12:57;;;;;;;22.60;15.50;;;;;;;;;;474915;250;27520;-71
2021/07/17 01:14:59;;;;;;;24.60;15.20;;;;;;;;;;474946;250;27629;-70
2021/07/17 01:17:01;;;;;;;19.80;15.43;;;;;;;;;;474951;250;27516;-71
2021/07/17 01:19:03;;;;;;;19.60;14.67;;;;;;;;;;474933;250;27574;-70
2021/07/17 01:21:05;;;;;;;19.60;13.77;;;;;;;;;;474965;250;27539;-71
2021/07/17 01:23:07;;;;;;;21.43;14.80;;;;;;;;;;474911;250;27994;-71
2021/07/17 01:25:11;;;;;;;20.07;15.10;;;;;;;;;;474953;250;27532;-72
2021/07/17 01:27:12;;;;;;;22.90;16.87;;;;;;;;;;474941;250;28761;-71
2021/07/17 01:29:14;;;;;;;22.40;17.00;;;;;;;;;;474922;250;27633;-72
2021/07/17 01:31:16;;;;;;;25.13;17.03;;;;;;;;;;474946;250;27569;-71
2021/07/17 01:33:18;;;;;;;24.87;17.97;;;;;;;;;;474931;250;27569;-71
2021/07/17 01:35:20;;;;;;;25.47;18.27;;;;;;;;;;474939;250;27553;-72
2021/07/17 01:37:22;;;;;;;25.87;17.77;;;;;;;;;;474954;250;27569;-71
2021/07/17 01:39:24;;;;;;;23.87;17.00;;;;;;;;;;474920;250;27564;-70
2021/07/17 01:41:27;;;;;;;23.53;16.80;;;;;;;;;;474935;250;27651;-71
2021/07/17 01:43:29;;;;;;;24.10;16.90;;;;;;;;;;474941;250;27644;-72
2021/07/17 01:45:31;;;;;;;21.33;16.40;;;;;;;;;;474924;250;28131;-72
2021/07/17 01:47:34;;;;;;;24.40;15.90;;;;;;;;;;474955;250;27571;-71
2021/07/17 01:49:35;;;;;;;23.30;16.40;;;;;;;;;;474928;250;28034;-70
2021/07/17 01:51:37;;;;;;;17.77;15.70;;;;;;;;;;474846;250;27560;-69
2021/07/17 01:53:39;;;;;;;19.13;14.93;;;;;;;;;;474962;250;28020;-70
2021/07/17 01:55:41;;;;;;;19.10;15.20;;;;;;;;;;474905;250;27548;-71
2021/07/17 01:57:43;;;;;;;18.67;15.80;;;;;;;;;;474947;250;27559;-70
2021/07/17 01:59:46;;;;;;;17.13;13.40;;;;;;;;;;474907;250;27590;-70
2021/07/17 02:01:48;;;;;;;17.00;14.30;;;;;;;;;;474948;250;27552;-70
2021/07/17 02:03:50;;;;;;;29.10;17.43;;;;;;;;;;474949;250;27542;-70
2021/07/17 02:05:52;;;;;;;20.87;15.80;;;;;;;;;;474932;250;27514;-72
2021/07/17 02:07:54;;;;;;;22.10;15.27;;;;;;;;;;474957;250;27546;-70
2021/07/17 02:09:56;;;;;;;20.67;16.00;;;;;;;;;;474944;250;27503;-70
2021/07/17 02:11:58;;;;;;;22.07;18.50;;;;;;;;;;474949;250;28006;-70
2021/07/17 02:14:00;;;;;;;27.00;17.37;;;;;;;;;;474944;250;27516;-70
2021/07/17 02:16:03;;;;;;;26.93;18.10;;;;;;;;;;474920;250;27975;-72
2021/07/17 02:18:05;;;;;;;25.40;18.43;;;;;;;;;;474936;250;27512;-72
2021/07/17 02:20:07;;;;;;;25.33;18.10;;;;;;;;;;474942;250;27611;-72
2021/07/17 02:22:09;;;;;;;28.47;19.47;;;;;;;;;;474899;250;27572;-71
2021/07/17 02:24:11;;;;;;;20.53;17.53;;;;;;;;;;474930;250;27521;-71
2021/07/17 02:26:13;;;;;;;23.97;17.70;;;;;;;;;;474928;250;27640;-71
2021/07/17 02:28:15;;;;;;;21.50;17.83;;;;;;;;;;474941;250;27553;-71
2021/07/17 02:30:17;;;;;;;21.63;15.93;;;;;;;;;;474948;250;27940;-71
2021/07/17 02:32:19;;;;;;;29.30;18.83;;;;;;;;;;474937;250;27588;-71
2021/07/17 02:34:22;;;;;;;25.60;19.20;;;;;;;;;;474934;250;28047;-71
2021/07/17 02:36:24;;;;;;;22.57;17.17;;;;;;;;;;474924;250;27710;-71
2021/07/17 02:38:26;;;;;;;23.10;17.83;;;;;;;;;;474932;250;28030;-72
2021/07/17 02:40:28;;;;;;;21.77;16.60;;;;;;;;;;474947;250;27551;-70
2021/07/17 02:42:30;;;;;;;22.90;16.43;;;;;;;;;;474940;250;28047;-70
2021/07/17 02:44:32;;;;;;;19.90;15.97;;;;;;;;;;474948;250;27555;-70
2021/07/17 02:46:34;;;;;;;17.73;15.20;;;;;;;;;;474925;250;27557;-72
2021/07/17 02:48:36;;;;;;;18.53;15.13;;;;;;;;;;474939;250;27631;-72
2021/07/17 02:50:39;;;;;;;21.97;16.50;;;;;;;;;;474954;250;27661;-71
2021/07/17 02:52:41;;;;;;;21.27;15.80;;;;;;;;;;474895;250;27635;-72
2021/07/17 02:54:43;;;;;;;20.43;15.40;;;;;;;;;;470457;241;27650;-70
2021/07/17 02:56:45;;;;;;;18.20;15.57;;;;;;;;;;472403;250;27918;-70
2021/07/17 02:58:47;;;;;;;19.93;14.53;;;;;;;;;;468080;254;27545;-70
2021/07/17 03:00:54;;;;;;;18.20;15.13;;;;;;;;;;472413;250;27485;-70
2021/07/17 03:02:51;;;;;;;19.30;15.77;;;;;;;;;;467805;254;27420;-70
2021/07/17 03:04:53;;;;;;;19.33;15.00;;;;;;;;;;476766;236;27406;-70
2021/07/17 03:06:55;;;;;;;21.00;16.03;;;;;;;;;;496798;238;27404;-70
2021/07/17 03:08:58;;;;;;;30.47;18.10;;;;;;;;;;496663;239;27978;-70
2021/07/17 03:11:00;;;;;;;24.83;17.63;;;;;;;;;;496751;239;27354;-72
2021/07/17 03:13:02;;;;;;;23.37;17.47;;;;;;;;;;496758;239;27369;-71
2021/07/17 03:15:04;;;;;;;23.43;16.40;;;;;;;;;;482449;239;28052;-69
2021/07/17 03:17:06;;;;;;;25.10;17.93;;;;;;;;;;480890;247;27591;-72
2021/07/17 03:19:08;;;;;;;21.70;17.37;;;;;;;;;;480405;246;28023;-69
2021/07/17 03:21:10;;;;;;;18.17;15.17;;;;;;;;;;478955;248;27409;-69
2021/07/17 03:23:12;;;;;;;19.63;14.07;;;;;;;;;;478904;248;27858;-69
2021/07/17 03:25:15;;;;;;;22.67;15.77;;;;;;;;;;479878;238;27532;-70
2021/07/17 03:27:17;;;;;;;18.63;14.93;;;;;;;;;;489915;242;27529;-71
2021/07/17 03:29:19;;;;;;;17.63;14.50;;;;;;;;;;489923;242;27436;-71
2021/07/17 03:31:21;;;;;;;18.67;15.17;;;;;;;;;;489921;242;27471;-70
2021/07/17 03:33:23;;;;;;;18.27;15.87;;;;;;;;;;489933;242;27415;-70
2021/07/17 03:35:25;;;;;;;23.33;15.27;;;;;;;;;;473483;236;27647;-70
2021/07/17 03:37:27;;;;;;;18.73;14.90;;;;;;;;;;480145;246;27522;-72
2021/07/17 03:39:30;;;;;;;16.70;13.80;;;;;;;;;;480140;245;27440;-72
2021/07/17 03:41:32;;;;;;;16.47;13.60;;;;;;;;;;479856;245;27438;-72
2021/07/17 03:43:34;;;;;;;16.00;13.60;;;;;;;;;;480089;245;27431;-72
2021/07/17 03:45:36;;;;;;;17.70;13.70;;;;;;;;;;480106;248;27949;-71
2021/07/17 03:47:38;;;;;;;19.07;13.40;;;;;;;;;;480124;245;27444;-70
2021/07/17 03:49:40;;;;;;;16.80;13.50;;;;;;;;;;480161;245;27875;-71
2021/07/17 03:51:42;;;;;;;15.53;12.43;;;;;;;;;;480118;245;27516;-70
2021/07/17 03:53:44;;;;;;;14.33;12.60;;;;;;;;;;480102;236;27867;-71
2021/07/17 03:55:46;;;;;;;15.87;12.60;;;;;;;;;;475461;249;27422;-71
2021/07/17 03:57:49;;;;;;;20.87;15.83;;;;;;;;;;475500;249;27448;-69
2021/07/17 03:59:51;;;;;;;19.73;14.87;;;;;;;;;;475427;249;27474;-70
2021/07/17 04:01:53;;;;;;;15.30;13.70;;;;;;;;;;475410;250;27458;-70
2021/07/17 04:03:55;;;;;;;16.27;13.17;;;;;;;;;;475404;250;27458;-70
2021/07/17 04:05:57;;;;;;;16.07;14.07;;;;;;;;;;475394;250;27385;-70
2021/07/17 04:07:59;;;;;;;14.67;12.70;;;;;;;;;;475374;250;27525;-71
2021/07/17 04:10:01;;;;;;;15.70;13.33;;;;;;;;;;475400;250;27516;-70
2021/07/17 04:12:03;;;;;;;16.90;12.87;;;;;;;;;;475417;250;27962;-70
2021/07/17 04:14:06;;;;;;;19.20;13.93;;;;;;;;;;475406;250;27450;-70
2021/07/17 04:16:08;;;;;;;15.00;13.40;;;;;;;;;;475422;250;27986;-69
2021/07/17 04:18:10;;;;;;;17.77;13.23;;;;;;;;;;475441;250;27435;-70
2021/07/17 04:20:12;;;;;;;15.07;12.80;;;;;;;;;;475434;250;27943;-70
2021/07/17 04:22:14;;;;;;;16.90;14.37;;;;;;;;;;475432;250;27446;-69
2021/07/17 04:24:16;;;;;;;19.37;14.53;;;;;;;;;;475441;250;27406;-70
2021/07/17 04:26:18;;;;;;;15.17;13.63;;;;;;;;;;475440;250;27550;-70
2021/07/17 04:28:20;;;;;;;14.47;12.97;;;;;;;;;;475439;250;27442;-70
2021/07/17 04:30:23;;;;;;;15.03;13.50;;;;;;;;;;475443;250;27529;-71
2021/07/17 04:32:25;;;;;;;17.80;14.13;;;;;;;;;;475446;247;27448;-71
2021/07/17 04:34:27;;;;;;;14.10;12.60;;;;;;;;;;475385;250;27501;-71
2021/07/17 04:36:29;;;;;;;13.63;12.23;;;;;;;;;;475386;250;27490;-70
2021/07/17 04:38:31;;;;;;;13.30;11.80;;;;;;;;;;475375;250;27883;-70
2021/07/17 04:40:33;;;;;;;14.80;13.20;;;;;;;;;;475387;250;27430;-70
2021/07/17 04:42:35;;;;;;;19.10;14.00;;;;;;;;;;475381;250;27928;-72
2021/07/17 04:44:37;;;;;;;14.23;12.83;;;;;;;;;;475371;250;27418;-69
2021/07/17 04:46:39;;;;;;;13.70;12.20;;;;;;;;;;475419;250;27902;-70
2021/07/17 04:48:42;;;;;;;16.43;13.60;;;;;;;;;;475407;250;27413;-70
2021/07/17 04:50:44;;;;;;;15.23;12.43;;;;;;;;;;475389;250;27395;-71
2021/07/17 04:52:46;;;;;;;15.77;12.73;;;;;;;;;;475393;250;27539;-70
2021/07/17 04:54:48;;;;;;;17.00;12.73;;;;;;;;;;475348;249;27459;-72
2021/07/17 04:56:50;;;;;;;14.93;12.90;;;;;;;;;;475395;250;27410;-71
2021/07/17 04:58:52;;;;;;;13.93;12.17;;;;;;;;;;475431;250;27390;-71
2021/07/17 05:00:54;;;;;;;14.33;12.30;;;;;;;;;;475446;250;27414;-71
2021/07/17 05:02:56;;;;;;;16.37;13.30;;;;;;;;;;475432;250;27406;-72
2021/07/17 05:04:59;;;;;;;16.40;13.53;;;;;;;;;;484250;240;28872;-71
2021/07/17 05:07:01;;;;;;;15.77;13.50;;;;;;;;;;489291;243;27508;-71
2021/07/17 05:09:03;;;;;;;17.13;13.43;;;;;;;;;;489242;243;28187;-72
2021/07/17 05:11:05;;;;;;;16.90;13.30;;;;;;;;;;489270;243;27547;-71
2021/07/17 05:13:07;;;;;;;14.80;13.20;;;;;;;;;;489252;243;28004;-70
2021/07/17 05:15:09;;;;;;;17.00;13.73;;;;;;;;;;478851;237;27603;-70
2021/07/17 05:17:11;;;;;;;16.20;13.57;;;;;;;;;;475111;249;27511;-70
2021/07/17 05:19:13;;;;;;;16.20;12.87;;;;;;;;;;475117;249;27442;-70
2021/07/17 05:21:18;;;;;;;14.47;12.90;;;;;;;;;;475118;249;27518;-70
2021/07/17 05:23:20;;;;;;;15.40;12.93;;;;;;;;;;475108;249;27418;-70
2021/07/17 05:25:23;;;;;;;14.20;12.50;;;;;;;;;;475114;249;27867;-70
2021/07/17 05:27:25;;;;;;;17.83;13.70;;;;;;;;;;475120;249;27433;-70
2021/07/17 05:29:27;;;;;;;18.40;14.43;;;;;;;;;;475130;249;27871;-70
2021/07/17 05:31:29;;;;;;;17.17;12.30;;;;;;;;;;475076;249;27509;-69
2021/07/17 05:33:31;;;;;;;15.57;13.40;;;;;;;;;;475118;249;27449;-71
2021/07/17 05:35:33;;;;;;;17.50;13.67;;;;;;;;;;475085;247;27415;-71
2021/07/17 05:37:35;;;;;;;18.93;14.90;;;;;;;;;;475005;249;27506;-71
2021/07/17 05:39:37;;;;;;;20.60;14.80;;;;;;;;;;475069;249;27815;-72
2021/07/17 05:41:40;;;;;;;20.80;15.10;;;;;;;;;;475082;249;27429;-70
2021/07/17 05:43:42;;;;;;;18.50;14.03;;;;;;;;;;475080;249;27936;-70
2021/07/17 05:45:44;;;;;;;16.50;13.23;;;;;;;;;;475076;249;27485;-70
2021/07/17 05:47:46;;;;;;;22.77;13.97;;;;;;;;;;475077;249;27958;-69
2021/07/17 05:49:48;;;;;;;15.97;13.10;;;;;;;;;;475032;249;27531;-71
2021/07/17 05:51:50;;;;;;;19.67;15.43;;;;;;;;;;475062;249;27534;-70
2021/07/17 05:53:52;;;;;;;17.90;13.93;;;;;;;;;;475066;249;27544;-70
2021/07/17 05:55:54;;;;;;;15.80;13.60;;;;;;;;;;475108;249;27559;-70
2021/07/17 05:57:57;;;;;;;22.00;14.83;;;;;;;;;;475122;249;27450;-70
2021/07/17 05:59:59;;;;;;;20.23;14.77;;;;;;;;;;475096;249;27497;-70
2021/07/17 06:02:01;;;;;;;17.20;13.33;;;;;;;;;;475107;249;27442;-70
2021/07/17 06:04:04;;;;;;;21.90;15.60;;;;;;;;;;475108;249;27409;-70
2021/07/17 06:06:05;;;;;;;15.23;13.33;;;;;;;;;;475063;250;28023;-70
2021/07/17 06:08:07;;;;;;;15.67;13.63;;;;;;;;;;475120;249;27478;-70
2021/07/17 06:10:09;;;;;;;18.43;13.50;;;;;;;;;;475117;249;27877;-70
2021/07/17 06:12:11;;;;;;;20.00;14.23;;;;;;;;;;475123;249;27406;-70
2021/07/17 06:14:13;;;;;;;15.70;14.00;;;;;;;;;;475109;249;27485;-70
2021/07/17 06:16:16;;;;;;;15.30;12.73;;;;;;;;;;475124;249;27537;-70
2021/07/17 06:18:18;;;;;;;16.37;12.83;;;;;;;;;;475064;249;27533;-69
2021/07/17 06:20:20;;;;;;;15.50;13.20;;;;;;;;;;475117;249;27541;-71
2021/07/17 06:22:22;;;;;;;21.37;15.17;;;;;;;;;;475102;249;27394;-71
2021/07/17 06:24:24;;;;;;;20.17;14.83;;;;;;;;;;475133;249;27516;-70
2021/07/17 06:26:26;;;;;;;15.23;13.10;;;;;;;;;;475098;249;27414;-71
2021/07/17 06:28:28;;;;;;;18.30;13.10;;;;;;;;;;475126;249;28332;-72
2021/07/17 06:30:30;;;;;;;16.10;12.83;;;;;;;;;;475109;249;27422;-70
2021/07/17 06:32:33;;;;;;;14.20;12.43;;;;;;;;;;475054;249;28010;-71
2021/07/17 06:34:35;;;;;;;19.43;12.70;;;;;;;;;;475098;249;27516;-71
2021/07/17 06:36:37;;;;;;;16.40;13.23;;;;;;;;;;475111;249;28110;-71
2021/07/17 06:38:39;;;;;;;13.63;12.20;;;;;;;;;;475046;249;27441;-72
2021/07/17 06:40:41;;;;;;;17.60;13.87;;;;;;;;;;475109;249;27446;-71
2021/07/17 06:42:43;;;;;;;20.97;14.10;;;;;;;;;;475115;249;27461;-72
2021/07/17 06:44:45;;;;;;;16.80;13.53;;;;;;;;;;475119;249;27529;-71
2021/07/17 06:46:47;;;;;;;16.90;13.30;;;;;;;;;;475108;249;27527;-72
2021/07/17 06:48:50;;;;;;;18.63;12.80;;;;;;;;;;475093;249;27489;-71
2021/07/17 06:50:52;;;;;;;16.77;12.80;;;;;;;;;;475092;249;27580;-72
2021/07/17 06:52:54;;;;;;;18.40;12.87;;;;;;;;;;475108;249;27426;-72
2021/07/17 06:54:56;;;;;;;15.83;12.03;;;;;;;;;;475024;249;28022;-72
2021/07/17 06:56:58;;;;;;;15.97;12.17;;;;;;;;;;475091;249;27394;-71
2021/07/17 06:59:00;;;;;;;14.27;11.90;;;;;;;;;;475135;249;27975;-71
2021/07/17 07:01:02;;;;;;;13.63;11.40;;;;;;;;;;475116;249;27409;-71
2021/07/17 07:03:04;;;;;;;15.70;12.20;;;;;;;;;;475091;249;27394;-71
2021/07/17 07:05:06;;;;;;;17.53;12.23;;;;;;;;;;475093;249;27494;-71
2021/07/17 07:07:09;;;;;;;18.43;12.97;;;;;;;;;;474464;246;27466;-72
2021/07/17 07:09:11;;;;;;;21.30;13.40;;;;;;;;;;473548;251;27538;-71
2021/07/17 07:11:13;;;;;;;16.70;12.53;;;;;;;;;;473557;251;27515;-72
2021/07/17 07:13:15;;;;;;;15.43;12.27;;;;;;;;;;473569;251;27523;-72
2021/07/17 07:15:17;;;;;;;13.70;12.13;;;;;;;;;;473528;251;27523;-70
2021/07/17 07:17:19;;;;;;;16.77;11.90;;;;;;;;;;473069;250;28051;-72
2021/07/17 07:19:21;;;;;;;19.00;12.63;;;;;;;;;;473022;250;27551;-70
2021/07/17 07:21:23;;;;;;;21.77;12.90;;;;;;;;;;472174;250;28438;-70
2021/07/17 07:23:25;;;;;;;17.40;12.53;;;;;;;;;;472135;250;27570;-72
2021/07/17 07:25:28;;;;;;;16.13;11.77;;;;;;;;;;473211;250;28108;-71
2021/07/17 07:27:30;;;;;;;20.63;14.20;;;;;;;;;;473378;250;27635;-71
2021/07/17 07:29:32;;;;;;;19.33;13.90;;;;;;;;;;473388;250;28118;-71
2021/07/17 07:31:34;;;;;;;18.17;12.80;;;;;;;;;;473374;250;27562;-70
2021/07/17 07:33:36;;;;;;;21.13;12.07;;;;;;;;;;473391;250;27467;-71
2021/07/17 07:35:38;;;;;;;22.57;13.63;;;;;;;;;;473379;250;27554;-72
2021/07/17 07:37:40;;;;;;;14.50;12.33;;;;;;;;;;473380;250;27567;-72
2021/07/17 07:39:42;;;;;;;18.50;12.10;;;;;;;;;;473371;250;27640;-72
2021/07/17 07:41:45;;;;;;;17.07;12.67;;;;;;;;;;473369;250;27546;-71
2021/07/17 07:43:47;;;;;;;15.17;11.30;;;;;;;;;;473361;250;28028;-72
2021/07/17 07:45:49;;;;;;;17.70;12.73;;;;;;;;;;473359;250;27626;-72
2021/07/17 07:47:52;;;;;;;18.03;12.77;;;;;;;;;;473368;250;28110;-72
2021/07/17 07:49:54;;;;;;;15.83;11.23;;;;;;;;;;473322;250;27606;-72
2021/07/17 07:51:55;;;;;;;12.80;11.40;;;;;;;;;;473353;250;27977;-68
2021/07/17 07:53:57;;;;;;;14.60;10.60;;;;;;;;;;473370;250;27613;-72
2021/07/17 07:56:02;;;;;;;12.33;11.03;;;;;;;;;;473356;250;27527;-71
2021/07/17 07:58:01;;;;;;;13.23;10.93;;;;;;;;;;473248;251;27541;-71
2021/07/17 08:00:05;;;;;;;15.70;11.70;;;;;;;;;;473360;250;27606;-71
2021/07/17 08:02:07;;;;;;;14.23;11.87;;;;;;;;;;473373;250;28009;-71
2021/07/17 08:04:09;;;;;;;12.73;10.67;;;;;;;;;;473359;250;27554;-72
2021/07/17 08:06:11;;;;;;;12.60;10.00;;;;;;;;;;473365;250;27474;-72
2021/07/17 08:08:13;;;;;;;12.90;10.80;;;;;;;;;;473370;250;27678;-71
2021/07/17 08:10:15;;;;;;;11.67;10.57;;;;;;;;;;473303;250;27562;-71
2021/07/17 08:12:17;;;;;;;11.67;10.33;;;;;;;;;;473294;250;27563;-72
2021/07/17 08:14:19;;;;;;;12.70;10.10;;;;;;;;;;473364;250;27539;-70
2021/07/17 08:16:22;;;;;;;13.03;9.83;;;;;;;;;;472233;250;27990;-72
2021/07/17 08:18:24;;;;;;;13.20;10.60;;;;;;;;;;466143;253;27535;-72
2021/07/17 08:20:26;;;;;;;12.23;10.23;;;;;;;;;;466153;253;28108;-72
2021/07/17 08:22:28;;;;;;;12.30;10.30;;;;;;;;;;466107;253;27527;-70
2021/07/17 08:24:30;;;;;;;12.73;11.40;;;;;;;;;;466142;253;27973;-70
2021/07/17 08:26:32;;;;;;;14.43;10.30;;;;;;;;;;466142;253;27526;-71
2021/07/17 08:28:34;;;;;;;14.03;10.87;;;;;;;;;;466148;253;27518;-70
2021/07/17 08:30:37;;;;;;;12.50;10.00;;;;;;;;;;466129;253;27578;-70
2021/07/17 08:32:38;;;;;;;10.10;8.97;;;;;;;;;;466106;253;27524;-72
2021/07/17 08:34:41;;;;;;;11.60;9.30;;;;;;;;;;466168;253;27609;-72
2021/07/17 08:36:43;;;;;;;11.30;9.47;;;;;;;;;;466143;253;27619;-72
2021/07/17 08:38:45;;;;;;;11.03;9.60;;;;;;;;;;466138;253;27543;-71
2021/07/17 08:40:47;;;;;;;10.27;9.17;;;;;;;;;;466149;253;27509;-71
2021/07/17 08:42:51;;;;;;;13.00;10.13;;;;;;;;;;466125;253;27933;-71
2021/07/17 08:44:53;;;;;;;9.33;8.40;;;;;;;;;;487633;234;27466;-71
2021/07/17 08:46:53;;;;;;;16.67;9.57;;;;;;;;;;501037;235;27465;-72
2021/07/17 08:48:56;;;;;;;9.40;8.23;;;;;;;;;;501113;235;28082;-72
2021/07/17 08:50:58;;;;;;;9.60;8.60;;;;;;;;;;501123;235;27482;-72
2021/07/17 08:53:00;;;;;;;11.20;8.40;;;;;;;;;;501120;235;28021;-71
2021/07/17 08:55:05;;;;;;;11.67;8.53;;;;;;;;;;501104;235;27558;-71
2021/07/17 08:57:09;;;;;;;8.80;7.90;;;;;;;;;;501107;235;27420;-71
2021/07/17 08:59:09;;;;;;;9.30;8.13;;;;;;;;;;501017;236;27521;-71
2021/07/17 09:01:11;;;;;;;11.50;8.60;;;;;;;;;;501091;235;27494;-71
2021/07/17 09:03:13;;;;;;;13.50;8.60;;;;;;;;;;501101;235;27456;-71
2021/07/17 09:05:15;;;;;;;9.40;8.23;;;;;;;;;;501126;235;27437;-72
2021/07/17 09:07:17;;;;;;;7.90;7.10;;;;;;;;;;501120;235;27479;-71
2021/07/17 09:09:20;;;;;;;9.13;8.13;;;;;;;;;;501105;235;27550;-71
2021/07/17 09:11:22;;;;;;;9.93;7.53;;;;;;;;;;501087;235;27477;-70
2021/07/17 09:13:24;;;;;;;11.30;8.97;;;;;;;;;;501118;237;27486;-71
2021/07/17 09:15:26;;;;;;;10.10;8.27;;;;;;;;;;501094;235;27474;-71
2021/07/17 09:17:30;;;;;;;9.17;8.20;;;;;;;;;;501117;235;27501;-70
2021/07/17 09:19:30;;;;;;;10.60;7.57;;;;;;;;;;501011;235;28032;-72
2021/07/17 09:21:32;;;;;;;8.60;7.67;;;;;;;;;;501102;235;27470;-72
2021/07/17 09:23:34;;;;;;;8.57;7.67;;;;;;;;;;501120;235;28040;-72
2021/07/17 09:25:37;;;;;;;12.43;7.73;;;;;;;;;;501092;235;27462;-72
2021/07/17 09:27:39;;;;;;;10.80;8.53;;;;;;;;;;501123;235;27933;-72
2021/07/17 09:29:42;;;;;;;10.00;7.60;;;;;;;;;;501104;235;27501;-71
2021/07/17 09:31:43;;;;;;;8.70;7.80;;;;;;;;;;501088;235;28035;-70
2021/07/17 09:33:45;;;;;;;10.23;7.60;;;;;;;;;;501091;235;27563;-72
2021/07/17 09:35:47;;;;;;;10.53;7.60;;;;;;;;;;501093;235;27901;-71
2021/07/17 09:37:49;;;;;;;8.90;8.00;;;;;;;;;;501108;235;27459;-72
2021/07/17 09:39:52;;;;;;;9.10;8.20;;;;;;;;;;501102;236;27882;-71
2021/07/17 09:41:53;;;;;;;9.47;7.63;;;;;;;;;;501036;235;27464;-71
2021/07/17 09:43:56;;;;;;;9.97;7.73;;;;;;;;;;501078;235;27953;-71
2021/07/17 09:45:58;;;;;;;8.00;7.20;;;;;;;;;;501129;235;27466;-71
2021/07/17 09:48:00;;;;;;;10.57;8.43;;;;;;;;;;501087;235;27970;-71
2021/07/17 09:50:02;;;;;;;8.17;7.37;;;;;;;;;;501098;235;27556;-71
2021/07/17 09:52:04;;;;;;;8.43;7.53;;;;;;;;;;501123;235;27872;-72
2021/07/17 09:54:06;;;;;;;8.83;7.90;;;;;;;;;;501093;235;27516;-72
2021/07/17 09:56:08;;;;;;;9.10;7.50;;;;;;;;;;501104;235;27935;-71
2021/07/17 09:58:10;;;;;;;10.57;8.30;;;;;;;;;;501069;235;27434;-71
2021/07/17 10:00:12;;;;;;;9.47;7.00;;;;;;;;;;501118;235;27988;-71
2021/07/17 10:02:15;;;;;;;8.90;8.00;;;;;;;;;;501124;235;27422;-72
2021/07/17 10:04:17;;;;;;;11.33;7.90;;;;;;;;;;501078;235;28755;-72
2021/07/17 10:06:19;;;;;;;9.73;7.90;;;;;;;;;;501095;235;27584;-72
2021/07/17 10:08:21;;;;;;;10.70;8.23;;;;;;;;;;501104;235;28034;-71
2021/07/17 10:10:23;;;;;;;8.40;7.33;;;;;;;;;;501124;235;27535;-72
2021/07/17 10:12:25;;;;;;;8.53;7.50;;;;;;;;;;501105;235;28044;-72
2021/07/17 10:14:27;;;;;;;7.80;7.00;;;;;;;;;;501093;235;27503;-71
2021/07/17 10:16:29;;;;;;;7.63;6.80;;;;;;;;;;501107;235;28072;-71
2021/07/17 10:18:31;;;;;;;11.67;7.50;;;;;;;;;;501077;235;27466;-72
2021/07/17 10:20:34;;;;;;;8.40;7.27;;;;;;;;;;501024;235;27952;-71
2021/07/17 10:22:37;;;;;;;8.47;7.67;;;;;;;;;;501042;235;27480;-72
2021/07/17 10:24:38;;;;;;;8.10;7.30;;;;;;;;;;501086;235;28801;-71
2021/07/17 10:26:40;;;;;;;9.60;6.80;;;;;;;;;;501111;235;27467;-72
2021/07/17 10:28:42;;;;;;;8.13;6.50;;;;;;;;;;501102;235;28080;-72
2021/07/17 10:30:44;;;;;;;8.97;7.43;;;;;;;;;;501112;235;27556;-71
2021/07/17 10:32:46;;;;;;;8.10;6.70;;;;;;;;;;501120;235;27936;-71
2021/07/17 10:34:50;;;;;;;7.83;7.07;;;;;;;;;;501102;235;27502;-71
2021/07/17 10:36:50;;;;;;;9.33;6.27;;;;;;;;;;501056;235;27895;-72
2021/07/17 10:38:53;;;;;;;11.13;7.20;;;;;;;;;;501112;235;27436;-71
2021/07/17 10:40:55;;;;;;;7.70;7.00;;;;;;;;;;501036;235;27925;-71
2021/07/17 10:42:57;;;;;;;8.43;7.57;;;;;;;;;;501096;235;27470;-71
2021/07/17 10:44:59;;;;;;;8.00;7.20;;;;;;;;;;501097;235;27885;-71
2021/07/17 10:47:01;;;;;;;11.43;8.07;;;;;;;;;;501125;235;27583;-71
2021/07/17 10:49:03;;;;;;;8.20;7.33;;;;;;;;;;501107;235;27905;-70
2021/07/17 10:51:05;;;;;;;8.63;7.00;;;;;;;;;;501134;235;27435;-71
2021/07/17 10:53:07;;;;;;;9.50;6.80;;;;;;;;;;501127;235;27897;-71
2021/07/17 10:55:10;;;;;;;7.50;6.70;;;;;;;;;;501128;235;27556;-71
2021/07/17 10:57:12;;;;;;;8.73;7.00;;;;;;;;;;501107;235;27967;-71
2021/07/17 10:59:14;;;;;;;9.53;7.60;;;;;;;;;;501051;235;27568;-71
2021/07/17 11:01:16;;;;;;;7.53;6.73;;;;;;;;;;500657;235;28827;-71
2021/07/17 11:03:18;;;;;;;8.70;7.70;;;;;;;;;;500628;235;27481;-72
2021/07/17 11:05:20;;;;;;;10.23;7.33;;;;;;;;;;500829;235;28148;-72
2021/07/17 11:07:22;;;;;;;10.80;7.37;;;;;;;;;;500894;235;27487;-72
2021/07/17 11:09:24;;;;;;;9.10;7.67;;;;;;;;;;501069;235;27994;-71
2021/07/17 11:11:26;;;;;;;9.33;7.77;;;;;;;;;;501100;235;27472;-71
2021/07/17 11:13:29;;;;;;;9.20;7.10;;;;;;;;;;501081;235;28005;-72
2021/07/17 11:15:31;;;;;;;9.03;7.57;;;;;;;;;;501120;235;27465;-72
2021/07/17 11:17:33;;;;;;;7.83;7.13;;;;;;;;;;501092;235;28036;-71
2021/07/17 11:19:36;;;;;;;7.50;6.37;;;;;;;;;;501123;235;27540;-72
2021/07/17 11:21:37;;;;;;;7.90;7.10;;;;;;;;;;501101;235;28052;-71
2021/07/17 11:23:39;;;;;;;7.57;6.80;;;;;;;;;;501089;235;27472;-71
2021/07/17 11:25:41;;;;;;;7.63;6.63;;;;;;;;;;501119;235;27954;-71
2021/07/17 11:27:43;;;;;;;6.70;6.10;;;;;;;;;;501107;235;27544;-71
2021/07/17 11:29:45;;;;;;;7.23;6.53;;;;;;;;;;501111;235;27946;-72
2021/07/17 11:31:48;;;;;;;7.40;6.70;;;;;;;;;;501121;235;27541;-71
2021/07/17 11:33:50;;;;;;;8.80;6.73;;;;;;;;;;501045;235;27902;-71
2021/07/17 11:35:52;;;;;;;8.77;7.40;;;;;;;;;;501117;235;27433;-72
2021/07/17 11:37:54;;;;;;;8.60;7.10;;;;;;;;;;501107;235;27876;-71
2021/07/17 11:39:56;;;;;;;10.07;7.87;;;;;;;;;;501085;235;27454;-71
2021/07/17 11:41:58;;;;;;;8.90;7.80;;;;;;;;;;501096;235;27964;-71
2021/07/17 11:44:00;;;;;;;8.67;7.70;;;;;;;;;;497348;235;27660;-71
2021/07/17 11:46:02;;;;;;;9.13;8.20;;;;;;;;;;485749;245;27990;-71
2021/07/17 11:48:04;;;;;;;10.13;8.50;;;;;;;;;;485729;245;27539;-71
2021/07/17 11:50:07;;;;;;;13.20;7.93;;;;;;;;;;485746;245;27950;-71
2021/07/17 11:52:09;;;;;;;13.17;8.10;;;;;;;;;;485747;245;27554;-71
2021/07/17 11:54:11;;;;;;;10.43;8.30;;;;;;;;;;485759;244;28052;-72
2021/07/17 11:56:13;;;;;;;9.13;8.23;;;;;;;;;;485732;245;27549;-71